Main page
METAR-TAF:

METAR-TAF

Airports :

Burgas Airport

Burgas, Bulgaria

latitude: 42-29N, longitude: 027-29E, elevation: 16 m

Current weather observation

The report was made 1 hour and 37 minutes ago, at 03:30 UTC
Wind 3 kt from the Southwest
Temperature 8°C
Humidity 87%
Pressure 1020 hPa
Visibility 10 km or more

METAR: LBBG 250330Z AUTO 23003KT 9999 NCD 08/06 Q1020 NOSIG

Time: 08:07 (05:07 UTC)

Forecast

The report was made 6 hours and 7 minutes ago, at 23:00 UTC
Forecast valid from 25 at 00 UTC to 25 at 24 UTC
Wind 4 kt from variable directions
Visibility 10 km or more
no clouds below 1500 m and no cumulonimbus
Becoming
from 25 at 09 UTC to 25 at 11 UTC
Wind 14 kt from the Southeast
Becoming
from 25 at 18 UTC to 25 at 20 UTC
Wind 4 kt from variable directions

TAF: LBBG 242300Z 2500/2524 VRB04KT CAVOK BECMG 2509/2511 13014KT BECMG 2518/2520 VRB04KT

Weather observations and forecasts of more than 4000 airports (METAR and TAF reports).

The available stations are represented by yellow and red dots on the map.

Hover mouse over dot to see the name of the station.

Then click to see weather observations and forecasts.

To change the map : click on the green buttons with a black cross to zoom in, on the green button with a dash to zoom out, or on the green arrows for adjacent maps.


METAR-TAF: